createdAt,value
2023-01-31T00:04:45.110Z,41.80
2023-01-31T00:09:53.327Z,41.70
2023-01-31T00:15:01.786Z,41.90
2023-01-31T00:20:11.207Z,40.90
2023-01-31T00:25:19.404Z,41.40
2023-01-31T00:30:27.093Z,40.73
2023-01-31T00:35:34.614Z,40.17
2023-01-31T00:40:41.444Z,41.13
2023-01-31T00:45:49.223Z,40.90
2023-01-31T00:50:57.262Z,40.87
2023-01-31T00:56:10.830Z,40.50
2023-01-31T01:01:23.443Z,42.40
2023-01-31T01:06:31.688Z,40.80
2023-01-31T01:11:39.447Z,40.37
2023-01-31T01:16:46.149Z,41.00
2023-01-31T01:21:55.701Z,40.83
2023-01-31T01:27:02.518Z,41.10
2023-01-31T01:32:10.053Z,40.53
2023-01-31T01:37:24.458Z,41.27
2023-01-31T01:42:37.145Z,40.63
2023-01-31T01:47:54.524Z,40.40
2023-01-31T01:58:28.201Z,40.53
2023-01-31T02:03:35.995Z,40.43
2023-01-31T02:08:46.066Z,40.63
2023-01-31T02:13:57.001Z,40.53
2023-01-31T02:19:04.596Z,40.70
2023-01-31T02:24:42.894Z,41.53
2023-01-31T02:29:55.486Z,40.63
2023-01-31T02:35:33.604Z,40.70
2023-01-31T02:41:10.390Z,40.53
2023-01-31T02:46:22.197Z,40.83
2023-01-31T02:51:40.144Z,40.95
2023-01-31T02:56:48.891Z,40.87
2023-01-31T03:02:04.719Z,41.03
2023-01-31T03:12:42.714Z,40.23
2023-01-31T03:18:12.687Z,40.63
2023-01-31T03:23:27.710Z,40.08
2023-01-31T03:33:52.716Z,40.60
2023-01-31T03:39:07.570Z,40.80
2023-01-31T03:44:33.935Z,40.37
2023-01-31T03:49:43.414Z,40.80
2023-01-31T03:54:58.744Z,40.50
2023-01-31T04:00:10.923Z,40.20
2023-01-31T04:05:23.093Z,40.73
2023-01-31T04:10:31.503Z,40.50
2023-01-31T04:15:38.147Z,39.87
2023-01-31T04:20:45.046Z,40.03
2023-01-31T04:25:55.295Z,40.20
2023-01-31T04:31:03.068Z,40.37
2023-01-31T04:36:11.709Z,41.13
2023-01-31T04:41:19.124Z,40.28
2023-01-31T04:46:26.145Z,40.40
2023-01-31T04:51:35.783Z,40.83
2023-01-31T04:56:43.524Z,40.80
2023-01-31T05:01:50.584Z,40.03
2023-01-31T05:06:57.881Z,40.60
2023-01-31T05:12:05.324Z,40.70
2023-01-31T05:17:13.295Z,40.37
2023-01-31T05:22:22.149Z,40.70
2023-01-31T05:27:32.659Z,40.37
2023-01-31T05:32:43.576Z,39.67
2023-01-31T05:37:50.743Z,40.23
2023-01-31T05:43:02.255Z,40.43
2023-01-31T05:48:09.980Z,40.53
2023-01-31T05:53:17.325Z,40.58
2023-01-31T05:58:24.360Z,40.53
2023-01-31T06:03:32.223Z,39.80
2023-01-31T06:08:39.827Z,40.53
2023-01-31T06:13:50.744Z,40.80
2023-01-31T06:18:57.814Z,40.20
2023-01-31T06:24:05.185Z,40.73
2023-01-31T06:29:13.674Z,40.88
2023-01-31T06:34:22.567Z,39.87
2023-01-31T06:39:30.693Z,40.05
2023-01-31T06:44:38.258Z,40.50
2023-01-31T06:49:46.281Z,40.43
2023-01-31T06:54:54.375Z,40.43
2023-01-31T07:00:01.345Z,39.87
2023-01-31T07:05:09.129Z,39.92
2023-01-31T07:10:16.720Z,41.40
2023-01-31T07:15:23.918Z,40.35
2023-01-31T07:20:31.336Z,40.80
2023-01-31T07:25:38.767Z,41.17
2023-01-31T07:30:46.497Z,40.37
2023-01-31T07:35:54.294Z,40.40
2023-01-31T07:41:05.333Z,40.50
2023-01-31T07:46:13.693Z,41.10
2023-01-31T07:51:22.147Z,40.90
2023-01-31T07:56:30.778Z,40.60
2023-01-31T08:01:55.238Z,40.90
2023-01-31T08:07:04.527Z,40.93
2023-01-31T08:12:11.522Z,40.67
2023-01-31T08:17:20.424Z,41.25
2023-01-31T08:22:28.174Z,41.08
2023-01-31T08:32:40.676Z,40.20
2023-01-31T08:37:48.458Z,41.15
2023-01-31T08:43:02.008Z,41.23
2023-01-31T08:48:09.042Z,41.63
2023-01-31T08:53:16.736Z,41.85
2023-01-31T08:58:23.677Z,41.00
2023-01-31T09:08:35.884Z,41.07
2023-01-31T09:13:43.187Z,41.23
2023-01-31T09:18:51.840Z,41.18
2023-01-31T09:24:02.461Z,41.00
2023-01-31T09:29:09.084Z,41.37
2023-01-31T09:34:17.079Z,41.47
2023-01-31T09:39:25.052Z,41.63
2023-01-31T09:44:36.878Z,41.57
2023-01-31T09:49:53.868Z,41.07
2023-01-31T09:55:05.185Z,41.57
2023-01-31T10:00:34.014Z,41.03
2023-01-31T10:06:00.361Z,41.17
2023-01-31T10:11:12.736Z,40.70
2023-01-31T10:16:39.332Z,41.70
2023-01-31T10:21:53.780Z,41.90
2023-01-31T10:27:10.543Z,42.40
2023-01-31T10:32:32.855Z,41.92
2023-01-31T10:38:01.958Z,41.87
2023-01-31T10:43:31.295Z,42.27
2023-01-31T10:48:38.994Z,42.07
2023-01-31T10:53:59.410Z,41.30
2023-01-31T10:59:39.488Z,42.00
2023-01-31T11:04:48.156Z,41.43
2023-01-31T11:09:59.634Z,42.43
2023-01-31T11:15:10.965Z,41.67
2023-01-31T11:20:30.408Z,41.55
2023-01-31T11:25:37.643Z,41.50
2023-01-31T11:30:48.927Z,41.53
2023-01-31T11:35:56.501Z,42.47
2023-01-31T11:41:03.589Z,42.30
2023-01-31T11:46:13.280Z,42.00
2023-01-31T11:51:31.977Z,42.70
2023-01-31T11:56:40.521Z,42.33
2023-01-31T12:01:52.589Z,41.73
2023-01-31T12:07:10.389Z,41.57
2023-01-31T12:12:36.105Z,42.20
2023-01-31T12:17:49.558Z,42.53
2023-01-31T12:23:01.080Z,41.47
2023-01-31T12:28:21.436Z,42.00
2023-01-31T12:34:06.951Z,41.30
2023-01-31T12:39:35.936Z,41.80
2023-01-31T12:45:22.541Z,41.40
2023-01-31T12:50:35.264Z,41.65
2023-01-31T12:56:28.082Z,41.87
2023-01-31T13:01:50.441Z,43.23
2023-01-31T13:07:05.399Z,42.47
2023-01-31T13:12:27.349Z,41.92
2023-01-31T13:17:36.937Z,42.40
2023-01-31T13:22:56.719Z,42.10
2023-01-31T13:28:20.854Z,42.03
2023-01-31T13:33:41.298Z,42.30
2023-01-31T13:38:48.614Z,41.70
2023-01-31T13:43:57.816Z,41.65
2023-01-31T13:49:29.976Z,41.97
2023-01-31T13:54:46.398Z,41.83
2023-01-31T14:00:04.362Z,42.43
2023-01-31T14:05:51.745Z,42.03
2023-01-31T14:11:22.214Z,41.70
2023-01-31T14:16:44.534Z,42.50
2023-01-31T14:22:08.467Z,43.00
2023-01-31T14:27:42.317Z,42.97
2023-01-31T14:33:14.527Z,42.50
2023-01-31T14:39:11.173Z,42.37
2023-01-31T14:44:51.348Z,42.45
2023-01-31T14:50:17.802Z,42.67
2023-01-31T14:55:35.224Z,42.95
2023-01-31T15:00:52.146Z,42.50
2023-01-31T15:06:21.292Z,42.33
2023-01-31T15:11:46.627Z,42.27
2023-01-31T15:17:07.853Z,42.13
2023-01-31T15:22:18.433Z,42.77
2023-01-31T15:27:33.677Z,42.15
2023-01-31T15:33:04.178Z,42.33
2023-01-31T15:38:30.936Z,42.77
2023-01-31T15:43:39.429Z,41.93
2023-01-31T15:48:46.381Z,42.40
2023-01-31T15:54:09.132Z,43.70
2023-01-31T15:59:19.074Z,41.87
2023-01-31T16:04:26.497Z,41.90
2023-01-31T16:09:34.954Z,42.00
2023-01-31T16:14:46.627Z,42.53
2023-01-31T16:19:53.248Z,42.00
2023-01-31T16:25:05.934Z,42.03
2023-01-31T16:30:22.605Z,41.98
2023-01-31T16:41:04.433Z,42.13
2023-01-31T16:46:39.240Z,41.67
2023-01-31T16:51:47.426Z,42.07
2023-01-31T16:57:09.801Z,41.77
2023-01-31T17:02:30.821Z,41.63
2023-01-31T17:07:39.004Z,41.90
2023-01-31T17:12:46.522Z,42.23
2023-01-31T17:17:55.077Z,41.97
2023-01-31T17:23:03.590Z,42.50
2023-01-31T17:28:11.957Z,41.98
2023-01-31T17:33:20.164Z,42.20
2023-01-31T17:38:28.119Z,42.30
2023-01-31T17:43:35.298Z,42.30
2023-01-31T17:48:42.593Z,42.07
2023-01-31T17:53:50.601Z,41.97
2023-01-31T17:58:58.044Z,41.73
2023-01-31T18:04:05.834Z,42.23
2023-01-31T18:09:15.861Z,41.42
2023-01-31T18:14:22.722Z,42.47
2023-01-31T18:19:29.944Z,41.77
2023-01-31T18:29:42.953Z,41.70
2023-01-31T18:34:49.947Z,41.98
2023-01-31T18:39:57.493Z,42.27
2023-01-31T18:45:04.073Z,41.77
2023-01-31T18:50:12.239Z,41.73
2023-01-31T18:55:19.528Z,42.07
2023-01-31T19:00:27.538Z,42.53
2023-01-31T19:05:34.026Z,41.93
2023-01-31T19:10:40.835Z,41.75
2023-01-31T19:15:47.410Z,41.85
2023-01-31T19:20:54.357Z,42.47
2023-01-31T19:26:03.491Z,42.70
2023-01-31T19:31:14.345Z,42.80
2023-01-31T19:36:25.179Z,42.30
2023-01-31T19:41:33.596Z,42.17
2023-01-31T19:46:40.115Z,41.30
2023-01-31T19:51:48.991Z,41.98
2023-01-31T19:56:58.957Z,42.07
2023-01-31T20:02:05.471Z,41.63
2023-01-31T20:07:14.584Z,41.63
2023-01-31T20:12:22.906Z,41.83
2023-01-31T20:17:31.279Z,41.83
2023-01-31T20:22:38.725Z,42.13
2023-01-31T20:27:47.367Z,42.20
2023-01-31T20:32:54.184Z,42.00
2023-01-31T20:38:01.213Z,42.33
2023-01-31T20:43:08.690Z,41.90
2023-01-31T20:48:17.006Z,41.87
2023-01-31T20:53:28.143Z,42.10
2023-01-31T20:58:38.634Z,42.17
2023-01-31T21:03:46.844Z,42.27
2023-01-31T21:08:55.510Z,41.60
2023-01-31T21:14:02.895Z,41.53
2023-01-31T21:19:10.693Z,42.67
2023-01-31T21:29:23.723Z,41.77
2023-01-31T21:34:31.799Z,42.15
2023-01-31T21:39:39.392Z,41.90
2023-01-31T21:44:48.027Z,42.00
2023-01-31T21:49:55.330Z,41.97
2023-01-31T21:55:03.984Z,41.83
2023-01-31T22:00:12.922Z,41.97
2023-01-31T22:05:21.093Z,41.85
2023-01-31T22:10:28.774Z,42.50
2023-01-31T22:15:38.007Z,42.50
2023-01-31T22:20:45.918Z,42.63
2023-01-31T22:25:55.584Z,41.70
2023-01-31T22:31:03.960Z,42.20
2023-01-31T22:36:13.493Z,42.03
2023-01-31T22:41:21.464Z,42.38
2023-01-31T22:46:31.296Z,42.23
2023-01-31T22:51:38.613Z,42.17
2023-01-31T22:56:45.928Z,42.27
2023-01-31T23:01:53.169Z,41.93
2023-01-31T23:06:59.914Z,42.20
2023-01-31T23:22:40.448Z,41.57
2023-01-31T23:27:48.768Z,42.17
2023-01-31T23:32:56.347Z,41.83
2023-01-31T23:38:03.991Z,42.00
2023-01-31T23:43:11.169Z,41.93
2023-01-31T23:48:19.751Z,42.43
2023-01-31T23:53:28.581Z,41.77
2023-01-31T23:58:35.663Z,41.97
